Please disable your adblock and script blockers to view this page.

ICAO: MMMX Country: Mexico
Latitude: 19.436303 Longitude: -99.072096
Total Arrivals: 2 Total Departures: 1
Latest Arrival:  6HA41 (MMLP-MMMX) WesleyRibeiro Latest Departure:  BAW4195 (MMMX-EGLL) GeoffreyDe Kergariou
Available Weather Information

METAR FOR MMMX (Issued: Tue, October 17th 2017 12:43 PM UTC):
MMMX 171243Z 34004KT 8SM BKN020 OVC080 14/08 A3046 NOSIG RMK 8/57/ HZY

Runways

Runway ID Mag Var Hdg Length Elevation Surface ILS Freq ILS Id ILS Slope
05L 7 52° 12966 ft 7314 ft Asphalt -- -- --
05R 7 52° 12795 ft 7314 ft Asphalt 109.1 IMWX 3
23L 7 232° 12795 ft 7314 ft Asphalt 109.7 IMEX 3
23R 7 232° 12966 ft 7314 ft Asphalt -- -- --

Benito Juárez International Airport




SkyDream Airlines

Start your flying career at SkyDream Airlines today and join a nice and friendly community!

Have fun flying in France and all over the World!

Copyright © 2017 - SkyDream Airlines

AIRAC cycle : 1711 Version : 1 Valid (from/to): 12/OCT/2017 - 08/NOV/2017

Your IP is 162.158.62.43

This page was generated in 0.0007 seconds

Website design by FSX30HD CMS by phpVMS